sensor_id;sensor_type;location;lat;lon;timestamp;temperature;humidity
17994;DHT22;9122;48.406;9.984;2023-01-20T00:00:18;1.30;94.30
17994;DHT22;9122;48.406;9.984;2023-01-20T00:03:03;1.20;94.30
17994;DHT22;9122;48.406;9.984;2023-01-20T00:05:51;1.20;94.30
17994;DHT22;9122;48.406;9.984;2023-01-20T00:08:35;1.30;94.30
17994;DHT22;9122;48.406;9.984;2023-01-20T00:11:20;1.20;94.30
17994;DHT22;9122;48.406;9.984;2023-01-20T00:14:05;1.30;94.30
17994;DHT22;9122;48.406;9.984;2023-01-20T00:16:50;1.20;94.30
17994;DHT22;9122;48.406;9.984;2023-01-20T00:19:34;1.20;94.40
17994;DHT22;9122;48.406;9.984;2023-01-20T00:22:19;1.20;94.30
17994;DHT22;9122;48.406;9.984;2023-01-20T00:25:04;1.20;94.30
17994;DHT22;9122;48.406;9.984;2023-01-20T00:27:50;1.20;94.30
17994;DHT22;9122;48.406;9.984;2023-01-20T00:30:41;1.30;94.30
17994;DHT22;9122;48.406;9.984;2023-01-20T00:33:25;1.30;94.70
17994;DHT22;9122;48.406;9.984;2023-01-20T00:36:11;1.20;94.30
17994;DHT22;9122;48.406;9.984;2023-01-20T00:38:56;1.20;94.30
17994;DHT22;9122;48.406;9.984;2023-01-20T00:41:41;1.20;94.30
17994;DHT22;9122;48.406;9.984;2023-01-20T00:44:30;1.20;94.40
17994;DHT22;9122;48.406;9.984;2023-01-20T00:47:18;1.20;94.40
17994;DHT22;9122;48.406;9.984;2023-01-20T00:50:04;1.30;94.40
17994;DHT22;9122;48.406;9.984;2023-01-20T00:52:48;1.20;94.40
17994;DHT22;9122;48.406;9.984;2023-01-20T00:55:32;1.20;94.40
17994;DHT22;9122;48.406;9.984;2023-01-20T00:58:18;1.20;94.50
17994;DHT22;9122;48.406;9.984;2023-01-20T01:01:02;1.20;94.60
17994;DHT22;9122;48.406;9.984;2023-01-20T01:03:47;1.20;94.60
17994;DHT22;9122;48.406;9.984;2023-01-20T01:06:31;1.20;94.60
17994;DHT22;9122;48.406;9.984;2023-01-20T01:09:15;1.20;94.60
17994;DHT22;9122;48.406;9.984;2023-01-20T01:12:15;1.20;94.60
17994;DHT22;9122;48.406;9.984;2023-01-20T01:15:00;1.20;94.60
17994;DHT22;9122;48.406;9.984;2023-01-20T01:17:44;1.20;94.60
17994;DHT22;9122;48.406;9.984;2023-01-20T01:20:29;1.20;94.60
17994;DHT22;9122;48.406;9.984;2023-01-20T01:23:13;1.20;94.60
17994;DHT22;9122;48.406;9.984;2023-01-20T01:25:58;1.20;94.60
17994;DHT22;9122;48.406;9.984;2023-01-20T01:28:49;1.20;94.60
17994;DHT22;9122;48.406;9.984;2023-01-20T01:31:33;1.20;94.60
17994;DHT22;9122;48.406;9.984;2023-01-20T01:34:18;1.20;94.60
17994;DHT22;9122;48.406;9.984;2023-01-20T01:37:02;1.10;94.60
17994;DHT22;9122;48.406;9.984;2023-01-20T01:39:47;1.20;94.70
17994;DHT22;9122;48.406;9.984;2023-01-20T01:42:32;1.20;94.80
17994;DHT22;9122;48.406;9.984;2023-01-20T01:45:20;1.20;95.00
17994;DHT22;9122;48.406;9.984;2023-01-20T01:48:08;1.20;94.80
17994;DHT22;9122;48.406;9.984;2023-01-20T01:51:18;1.20;94.80
17994;DHT22;9122;48.406;9.984;2023-01-20T01:54:10;1.20;94.60
17994;DHT22;9122;48.406;9.984;2023-01-20T01:56:55;1.20;94.50
17994;DHT22;9122;48.406;9.984;2023-01-20T01:59:39;1.20;94.40
17994;DHT22;9122;48.406;9.984;2023-01-20T02:02:23;1.20;94.30
17994;DHT22;9122;48.406;9.984;2023-01-20T02:05:10;1.20;94.20
17994;DHT22;9122;48.406;9.984;2023-01-20T02:07:56;1.20;94.10
17994;DHT22;9122;48.406;9.984;2023-01-20T02:10:41;1.20;94.20
17994;DHT22;9122;48.406;9.984;2023-01-20T02:13:26;1.20;94.10
17994;DHT22;9122;48.406;9.984;2023-01-20T02:16:24;1.20;94.20
17994;DHT22;9122;48.406;9.984;2023-01-20T02:37:23;1.20;94.40
17994;DHT22;9122;48.406;9.984;2023-01-20T02:46:51;1.20;94.50
17994;DHT22;9122;48.406;9.984;2023-01-20T02:52:43;1.10;94.60
17994;DHT22;9122;48.406;9.984;2023-01-20T02:55:39;1.20;94.90
17994;DHT22;9122;48.406;9.984;2023-01-20T02:58:42;1.10;94.60
17994;DHT22;9122;48.406;9.984;2023-01-20T03:01:32;1.10;94.60
17994;DHT22;9122;48.406;9.984;2023-01-20T03:04:22;1.10;94.50
17994;DHT22;9122;48.406;9.984;2023-01-20T03:07:09;1.10;94.60
17994;DHT22;9122;48.406;9.984;2023-01-20T03:09:56;1.10;94.50
17994;DHT22;9122;48.406;9.984;2023-01-20T03:18:38;1.10;94.20
17994;DHT22;9122;48.406;9.984;2023-01-20T03:21:22;1.10;94.10
17994;DHT22;9122;48.406;9.984;2023-01-20T03:24:07;1.10;94.10
17994;DHT22;9122;48.406;9.984;2023-01-20T03:26:52;1.00;94.00
17994;DHT22;9122;48.406;9.984;2023-01-20T03:29:37;1.10;94.00
17994;DHT22;9122;48.406;9.984;2023-01-20T03:32:21;1.00;94.00
17994;DHT22;9122;48.406;9.984;2023-01-20T03:35:10;1.00;94.00
17994;DHT22;9122;48.406;9.984;2023-01-20T03:37:55;1.00;94.00
17994;DHT22;9122;48.406;9.984;2023-01-20T03:40:52;1.00;94.00
17994;DHT22;9122;48.406;9.984;2023-01-20T03:43:42;0.90;94.00
17994;DHT22;9122;48.406;9.984;2023-01-20T03:49:51;0.90;94.00
17994;DHT22;9122;48.406;9.984;2023-01-20T03:55:40;0.90;94.10
17994;DHT22;9122;48.406;9.984;2023-01-20T03:58:30;0.90;94.10
17994;DHT22;9122;48.406;9.984;2023-01-20T04:01:16;0.90;94.10
17994;DHT22;9122;48.406;9.984;2023-01-20T04:04:04;0.80;94.20
17994;DHT22;9122;48.406;9.984;2023-01-20T04:06:51;0.80;94.10
17994;DHT22;9122;48.406;9.984;2023-01-20T04:09:43;0.80;94.20
17994;DHT22;9122;48.406;9.984;2023-01-20T04:12:31;0.80;94.20
17994;DHT22;9122;48.406;9.984;2023-01-20T04:15:16;0.80;94.20
17994;DHT22;9122;48.406;9.984;2023-01-20T04:18:19;0.70;94.20
17994;DHT22;9122;48.406;9.984;2023-01-20T04:21:03;0.70;94.20
17994;DHT22;9122;48.406;9.984;2023-01-20T04:23:59;0.70;94.30
17994;DHT22;9122;48.406;9.984;2023-01-20T04:26:46;0.70;94.30
17994;DHT22;9122;48.406;9.984;2023-01-20T04:29:30;0.70;94.30
17994;DHT22;9122;48.406;9.984;2023-01-20T04:32:15;0.70;94.40
17994;DHT22;9122;48.406;9.984;2023-01-20T04:34:59;0.70;94.40
17994;DHT22;9122;48.406;9.984;2023-01-20T04:37:44;0.70;94.50
17994;DHT22;9122;48.406;9.984;2023-01-20T04:40:28;0.60;94.50
17994;DHT22;9122;48.406;9.984;2023-01-20T04:43:12;0.60;94.50
17994;DHT22;9122;48.406;9.984;2023-01-20T04:45:59;0.70;94.60
17994;DHT22;9122;48.406;9.984;2023-01-20T04:48:44;0.70;94.60
17994;DHT22;9122;48.406;9.984;2023-01-20T04:51:31;0.90;94.70
17994;DHT22;9122;48.406;9.984;2023-01-20T04:54:16;0.70;94.70
17994;DHT22;9122;48.406;9.984;2023-01-20T04:57:00;0.70;94.70
17994;DHT22;9122;48.406;9.984;2023-01-20T04:59:45;0.70;94.70
17994;DHT22;9122;48.406;9.984;2023-01-20T05:02:29;0.70;94.80
17994;DHT22;9122;48.406;9.984;2023-01-20T05:05:13;0.70;94.80
17994;DHT22;9122;48.406;9.984;2023-01-20T05:07:58;0.70;94.80
17994;DHT22;9122;48.406;9.984;2023-01-20T05:10:42;0.80;94.80
17994;DHT22;9122;48.406;9.984;2023-01-20T05:13:27;0.80;94.80
17994;DHT22;9122;48.406;9.984;2023-01-20T05:16:14;0.80;94.80
17994;DHT22;9122;48.406;9.984;2023-01-20T05:19:02;0.80;94.80
17994;DHT22;9122;48.406;9.984;2023-01-20T05:21:46;0.80;94.80
17994;DHT22;9122;48.406;9.984;2023-01-20T05:24:31;0.80;94.80
17994;DHT22;9122;48.406;9.984;2023-01-20T05:27:15;1.10;94.80
17994;DHT22;9122;48.406;9.984;2023-01-20T05:29:59;1.00;94.80
17994;DHT22;9122;48.406;9.984;2023-01-20T05:32:44;0.80;95.00
17994;DHT22;9122;48.406;9.984;2023-01-20T05:35:29;0.80;94.70
17994;DHT22;9122;48.406;9.984;2023-01-20T05:38:13;0.80;94.60
17994;DHT22;9122;48.406;9.984;2023-01-20T05:41:01;0.80;94.70
17994;DHT22;9122;48.406;9.984;2023-01-20T05:43:52;0.70;94.70
17994;DHT22;9122;48.406;9.984;2023-01-20T05:46:37;0.70;94.70
17994;DHT22;9122;48.406;9.984;2023-01-20T05:49:21;0.80;94.70
17994;DHT22;9122;48.406;9.984;2023-01-20T05:52:06;0.70;94.70
17994;DHT22;9122;48.406;9.984;2023-01-20T05:54:51;0.70;94.70
17994;DHT22;9122;48.406;9.984;2023-01-20T05:57:35;0.70;94.70
17994;DHT22;9122;48.406;9.984;2023-01-20T06:00:20;0.70;94.80
17994;DHT22;9122;48.406;9.984;2023-01-20T06:03:05;0.70;94.80
17994;DHT22;9122;48.406;9.984;2023-01-20T06:05:50;0.70;94.90
17994;DHT22;9122;48.406;9.984;2023-01-20T06:08:35;0.70;94.90
17994;DHT22;9122;48.406;9.984;2023-01-20T06:11:23;0.70;95.00
17994;DHT22;9122;48.406;9.984;2023-01-20T06:14:07;0.70;94.90
17994;DHT22;9122;48.406;9.984;2023-01-20T06:16:51;1.30;95.10
17994;DHT22;9122;48.406;9.984;2023-01-20T06:19:36;0.70;95.30
17994;DHT22;9122;48.406;9.984;2023-01-20T06:22:20;0.70;95.00
17994;DHT22;9122;48.406;9.984;2023-01-20T06:25:05;0.70;95.00
17994;DHT22;9122;48.406;9.984;2023-01-20T06:27:50;0.70;95.10
17994;DHT22;9122;48.406;9.984;2023-01-20T06:30:34;0.70;95.10
17994;DHT22;9122;48.406;9.984;2023-01-20T06:33:19;0.70;95.20
17994;DHT22;9122;48.406;9.984;2023-01-20T06:36:05;0.70;95.20
17994;DHT22;9122;48.406;9.984;2023-01-20T06:38:52;0.70;95.30
17994;DHT22;9122;48.406;9.984;2023-01-20T06:41:36;0.70;95.30
17994;DHT22;9122;48.406;9.984;2023-01-20T06:44:21;0.70;95.30
17994;DHT22;9122;48.406;9.984;2023-01-20T06:47:09;0.80;95.40
17994;DHT22;9122;48.406;9.984;2023-01-20T06:49:53;0.80;95.40
17994;DHT22;9122;48.406;9.984;2023-01-20T06:52:37;0.80;95.40
17994;DHT22;9122;48.406;9.984;2023-01-20T06:55:22;0.80;95.40
17994;DHT22;9122;48.406;9.984;2023-01-20T06:58:07;0.80;95.40
17994;DHT22;9122;48.406;9.984;2023-01-20T07:00:51;0.80;95.70
17994;DHT22;9122;48.406;9.984;2023-01-20T07:03:36;0.80;95.40
17994;DHT22;9122;48.406;9.984;2023-01-20T07:09:15;0.80;95.60
17994;DHT22;9122;48.406;9.984;2023-01-20T07:11:59;0.80;95.80
17994;DHT22;9122;48.406;9.984;2023-01-20T07:14:44;0.80;95.90
17994;DHT22;9122;48.406;9.984;2023-01-20T07:17:28;0.80;96.10
17994;DHT22;9122;48.406;9.984;2023-01-20T07:20:13;0.90;96.20
17994;DHT22;9122;48.406;9.984;2023-01-20T07:23:01;0.90;96.40
17994;DHT22;9122;48.406;9.984;2023-01-20T07:25:46;0.90;96.50
17994;DHT22;9122;48.406;9.984;2023-01-20T07:28:31;0.90;96.60
17994;DHT22;9122;48.406;9.984;2023-01-20T07:31:18;0.90;96.70
17994;DHT22;9122;48.406;9.984;2023-01-20T07:34:07;0.90;96.80
17994;DHT22;9122;48.406;9.984;2023-01-20T07:36:52;0.90;96.90
17994;DHT22;9122;48.406;9.984;2023-01-20T07:39:36;0.90;96.90
17994;DHT22;9122;48.406;9.984;2023-01-20T07:42:21;0.90;97.00
17994;DHT22;9122;48.406;9.984;2023-01-20T07:45:08;1.30;97.20
17994;DHT22;9122;48.406;9.984;2023-01-20T07:47:55;0.90;97.10
17994;DHT22;9122;48.406;9.984;2023-01-20T07:50:40;1.00;97.10
17994;DHT22;9122;48.406;9.984;2023-01-20T07:53:26;1.00;97.10
17994;DHT22;9122;48.406;9.984;2023-01-20T07:56:20;1.00;97.10
17994;DHT22;9122;48.406;9.984;2023-01-20T07:59:05;1.00;97.20
17994;DHT22;9122;48.406;9.984;2023-01-20T08:01:49;1.00;97.10
17994;DHT22;9122;48.406;9.984;2023-01-20T08:04:34;1.00;97.10
17994;DHT22;9122;48.406;9.984;2023-01-20T08:07:19;1.00;96.90
17994;DHT22;9122;48.406;9.984;2023-01-20T08:10:03;1.00;96.80
17994;DHT22;9122;48.406;9.984;2023-01-20T08:12:47;1.10;96.70
17994;DHT22;9122;48.406;9.984;2023-01-20T08:15:33;1.10;96.50
17994;DHT22;9122;48.406;9.984;2023-01-20T08:18:18;1.10;96.20
17994;DHT22;9122;48.406;9.984;2023-01-20T08:21:06;1.10;96.10
17994;DHT22;9122;48.406;9.984;2023-01-20T08:23:53;1.30;96.00
17994;DHT22;9122;48.406;9.984;2023-01-20T08:26:37;1.20;95.90
17994;DHT22;9122;48.406;9.984;2023-01-20T08:29:22;1.20;95.80
17994;DHT22;9122;48.406;9.984;2023-01-20T08:32:06;1.20;95.70
17994;DHT22;9122;48.406;9.984;2023-01-20T08:34:51;1.20;95.60
17994;DHT22;9122;48.406;9.984;2023-01-20T08:37:36;1.20;95.60
17994;DHT22;9122;48.406;9.984;2023-01-20T08:40:20;1.20;95.60
17994;DHT22;9122;48.406;9.984;2023-01-20T08:43:07;1.20;95.70
17994;DHT22;9122;48.406;9.984;2023-01-20T08:46:06;1.30;96.10
17994;DHT22;9122;48.406;9.984;2023-01-20T08:48:53;1.20;95.80
17994;DHT22;9122;48.406;9.984;2023-01-20T08:51:39;1.20;95.80
17994;DHT22;9122;48.406;9.984;2023-01-20T08:54:24;1.30;95.80
17994;DHT22;9122;48.406;9.984;2023-01-20T08:57:08;1.30;95.80
17994;DHT22;9122;48.406;9.984;2023-01-20T08:59:54;1.30;95.80
17994;DHT22;9122;48.406;9.984;2023-01-20T09:02:38;1.30;95.80
17994;DHT22;9122;48.406;9.984;2023-01-20T09:05:24;1.40;95.80
17994;DHT22;9122;48.406;9.984;2023-01-20T09:08:08;1.30;95.70
17994;DHT22;9122;48.406;9.984;2023-01-20T09:10:53;1.30;95.60
17994;DHT22;9122;48.406;9.984;2023-01-20T09:13:40;1.30;95.60
17994;DHT22;9122;48.406;9.984;2023-01-20T09:16:24;1.30;95.60
17994;DHT22;9122;48.406;9.984;2023-01-20T09:19:09;1.30;95.50
17994;DHT22;9122;48.406;9.984;2023-01-20T09:21:54;1.30;95.50
17994;DHT22;9122;48.406;9.984;2023-01-20T09:24:39;1.40;95.50
17994;DHT22;9122;48.406;9.984;2023-01-20T09:27:23;1.40;95.60
17994;DHT22;9122;48.406;9.984;2023-01-20T09:30:09;1.40;95.60
17994;DHT22;9122;48.406;9.984;2023-01-20T09:32:53;1.40;95.60
17994;DHT22;9122;48.406;9.984;2023-01-20T09:35:40;1.40;95.60
17994;DHT22;9122;48.406;9.984;2023-01-20T09:38:25;1.40;95.60
17994;DHT22;9122;48.406;9.984;2023-01-20T09:41:35;1.50;95.70
17994;DHT22;9122;48.406;9.984;2023-01-20T09:44:52;1.50;95.70
17994;DHT22;9122;48.406;9.984;2023-01-20T09:47:43;1.50;95.70
17994;DHT22;9122;48.406;9.984;2023-01-20T09:50:36;1.50;95.70
17994;DHT22;9122;48.406;9.984;2023-01-20T09:53:55;1.50;95.80
17994;DHT22;9122;48.406;9.984;2023-01-20T09:56:46;1.50;95.80
17994;DHT22;9122;48.406;9.984;2023-01-20T09:59:41;1.50;95.80
17994;DHT22;9122;48.406;9.984;2023-01-20T10:02:32;1.50;95.80
17994;DHT22;9122;48.406;9.984;2023-01-20T10:05:24;1.60;95.90
17994;DHT22;9122;48.406;9.984;2023-01-20T10:08:32;1.60;95.90
17994;DHT22;9122;48.406;9.984;2023-01-20T10:11:18;1.60;95.90
17994;DHT22;9122;48.406;9.984;2023-01-20T10:14:32;1.60;95.80
17994;DHT22;9122;48.406;9.984;2023-01-20T10:17:32;1.60;95.60
17994;DHT22;9122;48.406;9.984;2023-01-20T10:20:32;1.70;95.50
17994;DHT22;9122;48.406;9.984;2023-01-20T10:32:25;1.70;95.20
17994;DHT22;9122;48.406;9.984;2023-01-20T10:38:02;1.70;94.90
17994;DHT22;9122;48.406;9.984;2023-01-20T10:41:15;1.70;94.80
17994;DHT22;9122;48.406;9.984;2023-01-20T10:44:03;1.80;94.80
17994;DHT22;9122;48.406;9.984;2023-01-20T10:50:15;1.80;94.60
17994;DHT22;9122;48.406;9.984;2023-01-20T10:59:15;1.90;94.10
17994;DHT22;9122;48.406;9.984;2023-01-20T11:11:10;2.10;93.50
17994;DHT22;9122;48.406;9.984;2023-01-20T11:13:55;2.20;93.20
17994;DHT22;9122;48.406;9.984;2023-01-20T11:16:40;2.20;93.10
17994;DHT22;9122;48.406;9.984;2023-01-20T11:19:55;2.20;93.00
17994;DHT22;9122;48.406;9.984;2023-01-20T11:22:46;2.20;92.80
17994;DHT22;9122;48.406;9.984;2023-01-20T11:25:31;2.30;92.70
17994;DHT22;9122;48.406;9.984;2023-01-20T11:28:17;2.30;92.70
17994;DHT22;9122;48.406;9.984;2023-01-20T11:31:05;2.40;92.60
17994;DHT22;9122;48.406;9.984;2023-01-20T11:33:58;2.40;92.60
17994;DHT22;9122;48.406;9.984;2023-01-20T11:36:43;2.40;92.60
17994;DHT22;9122;48.406;9.984;2023-01-20T11:39:30;2.40;92.50
17994;DHT22;9122;48.406;9.984;2023-01-20T11:42:41;2.40;92.50
17994;DHT22;9122;48.406;9.984;2023-01-20T11:45:27;2.50;92.50
17994;DHT22;9122;48.406;9.984;2023-01-20T11:51:00;2.50;92.30
17994;DHT22;9122;48.406;9.984;2023-01-20T11:53:44;2.50;92.40
17994;DHT22;9122;48.406;9.984;2023-01-20T11:56:39;2.50;92.70
17994;DHT22;9122;48.406;9.984;2023-01-20T11:59:31;2.50;92.70
17994;DHT22;9122;48.406;9.984;2023-01-20T12:02:23;2.60;92.50
17994;DHT22;9122;48.406;9.984;2023-01-20T12:08:49;2.60;92.00
17994;DHT22;9122;48.406;9.984;2023-01-20T12:12:36;2.60;91.90
17994;DHT22;9122;48.406;9.984;2023-01-20T12:15:04;2.60;91.80
17994;DHT22;9122;48.406;9.984;2023-01-20T12:18:15;2.50;91.70
17994;DHT22;9122;48.406;9.984;2023-01-20T12:21:12;2.90;91.90
17994;DHT22;9122;48.406;9.984;2023-01-20T12:24:07;2.60;91.80
17994;DHT22;9122;48.406;9.984;2023-01-20T12:26:54;2.60;91.80
17994;DHT22;9122;48.406;9.984;2023-01-20T12:29:41;2.60;91.70
17994;DHT22;9122;48.406;9.984;2023-01-20T12:32:28;2.60;91.70
17994;DHT22;9122;48.406;9.984;2023-01-20T12:35:14;2.70;91.70
17994;DHT22;9122;48.406;9.984;2023-01-20T12:38:10;2.70;91.60
17994;DHT22;9122;48.406;9.984;2023-01-20T12:41:06;2.70;91.60
17994;DHT22;9122;48.406;9.984;2023-01-20T12:43:59;2.70;91.50
17994;DHT22;9122;48.406;9.984;2023-01-20T12:46:56;2.70;91.40
17994;DHT22;9122;48.406;9.984;2023-01-20T13:14:50;2.80;91.10
17994;DHT22;9122;48.406;9.984;2023-01-20T13:17:40;2.90;91.10
17994;DHT22;9122;48.406;9.984;2023-01-20T13:20:29;4.90;92.00
17994;DHT22;9122;48.406;9.984;2023-01-20T13:23:17;2.90;91.20
17994;DHT22;9122;48.406;9.984;2023-01-20T13:26:04;3.30;91.60
17994;DHT22;9122;48.406;9.984;2023-01-20T13:32:16;2.90;91.20
17994;DHT22;9122;48.406;9.984;2023-01-20T13:38:01;3.00;91.20
17994;DHT22;9122;48.406;9.984;2023-01-20T13:41:00;2.90;91.10
17994;DHT22;9122;48.406;9.984;2023-01-20T13:43:49;3.00;91.20
17994;DHT22;9122;48.406;9.984;2023-01-20T13:49:23;2.90;91.60
17994;DHT22;9122;48.406;9.984;2023-01-20T13:52:08;3.40;91.10
17994;DHT22;9122;48.406;9.984;2023-01-20T14:00:25;3.00;90.20
17994;DHT22;9122;48.406;9.984;2023-01-20T14:03:25;4.70;90.90
17994;DHT22;9122;48.406;9.984;2023-01-20T14:08:57;3.00;89.60
17994;DHT22;9122;48.406;9.984;2023-01-20T14:11:52;3.00;89.50
17994;DHT22;9122;48.406;9.984;2023-01-20T14:14:40;3.00;89.40
17994;DHT22;9122;48.406;9.984;2023-01-20T14:17:25;3.00;90.00
17994;DHT22;9122;48.406;9.984;2023-01-20T14:20:19;3.00;90.20
17994;DHT22;9122;48.406;9.984;2023-01-20T14:26:12;3.00;90.00
17994;DHT22;9122;48.406;9.984;2023-01-20T14:28:59;3.10;90.10
17994;DHT22;9122;48.406;9.984;2023-01-20T14:31:47;4.20;90.60
17994;DHT22;9122;48.406;9.984;2023-01-20T14:34:32;3.00;89.90
17994;DHT22;9122;48.406;9.984;2023-01-20T14:37:24;3.00;89.70
17994;DHT22;9122;48.406;9.984;2023-01-20T14:42:59;3.00;89.00
17994;DHT22;9122;48.406;9.984;2023-01-20T14:45:46;4.30;90.10
17994;DHT22;9122;48.406;9.984;2023-01-20T14:48:31;3.00;90.00
17994;DHT22;9122;48.406;9.984;2023-01-20T14:51:16;3.00;89.40
17994;DHT22;9122;48.406;9.984;2023-01-20T14:57:31;3.00;89.50
17994;DHT22;9122;48.406;9.984;2023-01-20T15:00:21;3.00;89.50
17994;DHT22;9122;48.406;9.984;2023-01-20T15:06:17;3.00;89.50
17994;DHT22;9122;48.406;9.984;2023-01-20T15:09:21;2.90;89.60
17994;DHT22;9122;48.406;9.984;2023-01-20T15:12:37;2.90;90.30
17994;DHT22;9122;48.406;9.984;2023-01-20T15:15:31;2.90;89.80
17994;DHT22;9122;48.406;9.984;2023-01-20T15:21:11;3.00;89.40
17994;DHT22;9122;48.406;9.984;2023-01-20T15:27:30;3.00;89.90
17994;DHT22;9122;48.406;9.984;2023-01-20T15:30:22;3.00;89.70
17994;DHT22;9122;48.406;9.984;2023-01-20T15:33:10;3.00;89.70
17994;DHT22;9122;48.406;9.984;2023-01-20T15:35:57;3.00;90.00
17994;DHT22;9122;48.406;9.984;2023-01-20T15:38:44;3.00;90.10
17994;DHT22;9122;48.406;9.984;2023-01-20T15:41:29;3.00;89.50
17994;DHT22;9122;48.406;9.984;2023-01-20T15:44:16;3.00;89.50
17994;DHT22;9122;48.406;9.984;2023-01-20T15:47:00;3.40;89.70
17994;DHT22;9122;48.406;9.984;2023-01-20T15:49:47;3.00;89.60
17994;DHT22;9122;48.406;9.984;2023-01-20T15:52:32;3.00;89.90
17994;DHT22;9122;48.406;9.984;2023-01-20T15:55:18;3.00;90.50
17994;DHT22;9122;48.406;9.984;2023-01-20T15:58:18;3.00;90.30
17994;DHT22;9122;48.406;9.984;2023-01-20T16:01:03;3.80;90.30
17994;DHT22;9122;48.406;9.984;2023-01-20T16:03:50;3.00;89.30
17994;DHT22;9122;48.406;9.984;2023-01-20T16:06:41;3.00;89.50
17994;DHT22;9122;48.406;9.984;2023-01-20T16:09:26;3.00;89.60
17994;DHT22;9122;48.406;9.984;2023-01-20T16:12:48;2.90;89.70
17994;DHT22;9122;48.406;9.984;2023-01-20T16:15:41;3.10;90.40
17994;DHT22;9122;48.406;9.984;2023-01-20T16:18:26;3.00;90.00
17994;DHT22;9122;48.406;9.984;2023-01-20T16:21:16;3.10;90.80
17994;DHT22;9122;48.406;9.984;2023-01-20T16:24:01;3.00;89.70
17994;DHT22;9122;48.406;9.984;2023-01-20T16:26:46;3.00;89.70
17994;DHT22;9122;48.406;9.984;2023-01-20T16:29:31;3.00;89.80
17994;DHT22;9122;48.406;9.984;2023-01-20T16:32:15;2.90;90.20
17994;DHT22;9122;48.406;9.984;2023-01-20T16:35:02;3.00;89.70
17994;DHT22;9122;48.406;9.984;2023-01-20T16:37:53;3.00;89.50
17994;DHT22;9122;48.406;9.984;2023-01-20T16:40:52;3.00;89.50
17994;DHT22;9122;48.406;9.984;2023-01-20T16:43:40;3.00;90.00
17994;DHT22;9122;48.406;9.984;2023-01-20T16:46:35;2.80;89.50
17994;DHT22;9122;48.406;9.984;2023-01-20T16:49:23;3.00;90.20
17994;DHT22;9122;48.406;9.984;2023-01-20T16:52:09;3.00;90.70
17994;DHT22;9122;48.406;9.984;2023-01-20T16:54:54;3.10;90.10
17994;DHT22;9122;48.406;9.984;2023-01-20T16:57:42;2.90;90.40
17994;DHT22;9122;48.406;9.984;2023-01-20T17:00:45;1.50;89.50
17994;DHT22;9122;48.406;9.984;2023-01-20T17:03:30;2.90;89.90
17994;DHT22;9122;48.406;9.984;2023-01-20T17:06:19;2.90;90.00
17994;DHT22;9122;48.406;9.984;2023-01-20T17:09:10;2.90;90.50
17994;DHT22;9122;48.406;9.984;2023-01-20T17:12:22;3.00;90.00
17994;DHT22;9122;48.406;9.984;2023-01-20T17:15:19;2.90;90.70
17994;DHT22;9122;48.406;9.984;2023-01-20T17:21:47;2.70;90.00
17994;DHT22;9122;48.406;9.984;2023-01-20T17:24:36;2.90;90.10
17994;DHT22;9122;48.406;9.984;2023-01-20T17:27:23;2.90;90.00
17994;DHT22;9122;48.406;9.984;2023-01-20T17:30:15;2.90;90.00
17994;DHT22;9122;48.406;9.984;2023-01-20T17:32:59;2.90;90.00
17994;DHT22;9122;48.406;9.984;2023-01-20T17:35:44;3.00;90.00
17994;DHT22;9122;48.406;9.984;2023-01-20T17:38:41;2.90;89.90
17994;DHT22;9122;48.406;9.984;2023-01-20T17:41:28;2.90;90.00
17994;DHT22;9122;48.406;9.984;2023-01-20T17:44:13;2.90;89.90
17994;DHT22;9122;48.406;9.984;2023-01-20T17:46:57;2.90;90.00
17994;DHT22;9122;48.406;9.984;2023-01-20T17:49:48;2.80;90.00
17994;DHT22;9122;48.406;9.984;2023-01-20T17:52:33;2.80;90.00
17994;DHT22;9122;48.406;9.984;2023-01-20T17:55:28;3.10;90.10
17994;DHT22;9122;48.406;9.984;2023-01-20T17:58:12;4.40;90.50
17994;DHT22;9122;48.406;9.984;2023-01-20T18:01:29;2.80;90.10
17994;DHT22;9122;48.406;9.984;2023-01-20T18:07:00;2.70;89.80
17994;DHT22;9122;48.406;9.984;2023-01-20T18:09:45;2.70;90.20
17994;DHT22;9122;48.406;9.984;2023-01-20T18:12:30;2.70;90.30
17994;DHT22;9122;48.406;9.984;2023-01-20T18:15:14;2.70;90.30
17994;DHT22;9122;48.406;9.984;2023-01-20T18:17:59;2.60;90.20
17994;DHT22;9122;48.406;9.984;2023-01-20T18:20:45;2.60;90.30
17994;DHT22;9122;48.406;9.984;2023-01-20T18:23:30;2.60;90.50
17994;DHT22;9122;48.406;9.984;2023-01-20T18:26:17;2.60;90.50
17994;DHT22;9122;48.406;9.984;2023-01-20T18:29:04;2.50;90.50
17994;DHT22;9122;48.406;9.984;2023-01-20T18:31:48;2.50;90.40
17994;DHT22;9122;48.406;9.984;2023-01-20T18:34:33;2.50;90.50
17994;DHT22;9122;48.406;9.984;2023-01-20T18:37:18;2.40;90.40
17994;DHT22;9122;48.406;9.984;2023-01-20T18:40:03;2.40;90.30
17994;DHT22;9122;48.406;9.984;2023-01-20T18:42:48;2.40;90.30
17994;DHT22;9122;48.406;9.984;2023-01-20T18:45:35;2.50;90.30
17994;DHT22;9122;48.406;9.984;2023-01-20T18:48:20;2.30;90.30
17994;DHT22;9122;48.406;9.984;2023-01-20T18:51:07;2.30;90.40
17994;DHT22;9122;48.406;9.984;2023-01-20T18:53:56;2.30;90.50
17994;DHT22;9122;48.406;9.984;2023-01-20T18:56:41;3.10;90.70
17994;DHT22;9122;48.406;9.984;2023-01-20T18:59:26;2.20;90.50
17994;DHT22;9122;48.406;9.984;2023-01-20T19:02:10;2.20;90.60
17994;DHT22;9122;48.406;9.984;2023-01-20T19:04:57;2.10;90.60
17994;DHT22;9122;48.406;9.984;2023-01-20T19:07:47;2.10;90.70
17994;DHT22;9122;48.406;9.984;2023-01-20T19:10:32;2.10;90.70
17994;DHT22;9122;48.406;9.984;2023-01-20T19:13:17;2.10;90.80
17994;DHT22;9122;48.406;9.984;2023-01-20T19:16:02;2.00;90.80
17994;DHT22;9122;48.406;9.984;2023-01-20T19:18:57;2.00;90.80
17994;DHT22;9122;48.406;9.984;2023-01-20T19:21:43;2.00;90.80
17994;DHT22;9122;48.406;9.984;2023-01-20T19:24:28;2.00;90.80
17994;DHT22;9122;48.406;9.984;2023-01-20T19:27:14;2.00;90.80
17994;DHT22;9122;48.406;9.984;2023-01-20T19:29:59;1.90;91.00
17994;DHT22;9122;48.406;9.984;2023-01-20T19:32:44;1.90;90.90
17994;DHT22;9122;48.406;9.984;2023-01-20T19:35:29;1.90;90.90
17994;DHT22;9122;48.406;9.984;2023-01-20T19:38:16;1.90;91.00
17994;DHT22;9122;48.406;9.984;2023-01-20T19:43:56;1.80;91.30
17994;DHT22;9122;48.406;9.984;2023-01-20T19:46:41;1.80;91.00
17994;DHT22;9122;48.406;9.984;2023-01-20T19:49:26;1.70;91.00
17994;DHT22;9122;48.406;9.984;2023-01-20T19:52:10;1.70;91.10
17994;DHT22;9122;48.406;9.984;2023-01-20T19:54:55;1.60;91.10
17994;DHT22;9122;48.406;9.984;2023-01-20T19:57:39;1.60;91.20
17994;DHT22;9122;48.406;9.984;2023-01-20T20:00:24;2.20;91.30
17994;DHT22;9122;48.406;9.984;2023-01-20T20:03:09;1.60;91.20
17994;DHT22;9122;48.406;9.984;2023-01-20T20:05:53;1.50;91.30
17994;DHT22;9122;48.406;9.984;2023-01-20T20:08:40;1.50;91.20
17994;DHT22;9122;48.406;9.984;2023-01-20T20:11:26;1.50;91.30
17994;DHT22;9122;48.406;9.984;2023-01-20T20:14:13;1.40;91.30
17994;DHT22;9122;48.406;9.984;2023-01-20T20:17:01;2.20;91.50
17994;DHT22;9122;48.406;9.984;2023-01-20T20:19:46;1.60;91.50
17994;DHT22;9122;48.406;9.984;2023-01-20T20:22:30;1.30;91.40
17994;DHT22;9122;48.406;9.984;2023-01-20T20:25:14;1.40;91.50
17994;DHT22;9122;48.406;9.984;2023-01-20T20:27:59;1.30;91.80
17994;DHT22;9122;48.406;9.984;2023-01-20T20:30:43;1.30;91.50
17994;DHT22;9122;48.406;9.984;2023-01-20T20:33:28;1.30;91.60
17994;DHT22;9122;48.406;9.984;2023-01-20T20:36:13;1.20;91.50
17994;DHT22;9122;48.406;9.984;2023-01-20T20:39:02;1.20;91.50
17994;DHT22;9122;48.406;9.984;2023-01-20T20:41:47;1.20;91.40
17994;DHT22;9122;48.406;9.984;2023-01-20T20:44:32;1.10;91.40
17994;DHT22;9122;48.406;9.984;2023-01-20T20:47:18;1.10;91.40